Time;durP1;ratioP1;P1;durP2;ratioP2;P2;SDS_P1;SDS_P2;PMS_P1;PMS_P2;Temp;Humidity;BMP_temperature;BMP_pressure;BME280_temperature;BME280_humidity;BME280_pressure;Samples;Min_cycle;Max_cycle;Signal;HPM_P1;HPM_P2
2023/07/01 00:00:58;;;;;;;0.10;0.10;;;;;;;14.38;95.68;97819.13;5023648;28;20110;-72
2023/07/01 00:03:30;;;;;;;0.10;0.10;;;;;;;14.37;95.88;97820.25;5007666;28;20049;-71
2023/07/01 00:05:57;;;;;;;0.20;0.20;;;;;;;14.41;96.22;97819.19;5026064;28;20094;-71
2023/07/01 00:08:24;;;;;;;;;;;;;;;14.48;96.40;97820.56;5025942;28;20061;-71
2023/07/01 00:10:51;;;;;;;0.10;0.10;;;;;;;14.51;96.03;97819.88;5025152;28;19971;-71
2023/07/01 00:13:17;;;;;;;0.20;0.20;;;;;;;14.51;95.75;97825.34;5027087;28;20517;-72
2023/07/01 00:15:43;;;;;;;0.20;0.20;;;;;;;14.56;96.20;97825.91;5029485;28;20049;-72
2023/07/01 00:18:09;;;;;;;0.20;0.20;;;;;;;14.61;96.41;97825.66;5026516;28;20513;-70
2023/07/01 00:20:36;;;;;;;0.20;0.20;;;;;;;14.65;96.63;97822.19;5006475;28;20136;-72
2023/07/01 00:23:03;;;;;;;0.20;0.20;;;;;;;14.69;96.92;97814.88;5006048;28;20068;-71
2023/07/01 00:25:30;;;;;;;0.17;0.17;;;;;;;14.70;96.37;97809.00;5025487;28;20045;-71
2023/07/01 00:27:56;;;;;;;0.20;0.20;;;;;;;14.71;96.76;97809.81;5025811;28;20053;-72
2023/07/01 00:30:23;;;;;;;0.20;0.20;;;;;;;14.73;96.78;97810.28;5022491;28;20064;-72
2023/07/01 00:32:49;;;;;;;0.20;0.20;;;;;;;14.72;96.89;97814.97;5025075;28;20140;-72
2023/07/01 00:35:16;;;;;;;0.20;0.20;;;;;;;14.74;97.34;97806.38;5023598;28;20069;-72
2023/07/01 00:37:42;;;;;;;0.20;0.20;;;;;;;14.75;97.29;97810.72;5004349;28;20539;-72
2023/07/01 00:40:10;;;;;;;0.20;0.20;;;;;;;14.77;97.41;97804.91;5008993;28;20109;-71
2023/07/01 00:42:38;;;;;;;0.20;0.20;;;;;;;14.75;97.38;97807.97;5023509;28;20045;-72
2023/07/01 00:45:05;;;;;;;0.20;0.20;;;;;;;14.80;97.41;97809.69;5021920;28;20130;-71
2023/07/01 00:47:32;;;;;;;;;;;;;;;14.80;97.52;97807.72;5004871;28;20111;-71
2023/07/01 00:49:59;;;;;;;0.20;0.20;;;;;;;14.81;97.94;97808.53;5007572;28;19925;-72
2023/07/01 00:52:25;;;;;;;0.20;0.20;;;;;;;14.84;97.63;97803.13;5021206;28;20121;-72
2023/07/01 00:54:52;;;;;;;0.10;0.10;;;;;;;14.83;97.60;97807.03;5023013;28;20068;-73
2023/07/01 00:57:18;;;;;;;0.20;0.20;;;;;;;14.85;97.91;97806.66;5005055;28;20578;-73
2023/07/01 00:59:46;;;;;;;0.20;0.20;;;;;;;14.82;97.59;97802.66;4991158;28;20041;-72
2023/07/01 01:02:20;;;;;;;0.20;0.20;;;;;;;14.83;97.94;97807.03;5022283;28;20524;-74
2023/07/01 01:04:58;;;;;;;0.20;0.20;;;;;;;14.86;97.89;97802.78;5006161;28;20441;-72
2023/07/01 01:07:29;;;;;;;0.20;0.20;;;;;;;14.90;98.04;97800.91;5007349;28;20063;-72
2023/07/01 01:10:00;;;;;;;0.20;0.20;;;;;;;14.93;98.08;97802.97;4987964;28;20585;-74
2023/07/01 01:12:28;;;;;;;0.20;0.20;;;;;;;14.98;98.25;97807.38;5023806;28;20049;-72
2023/07/01 01:14:58;;;;;;;0.20;0.20;;;;;;;15.01;97.90;97806.72;5023760;28;20049;-73
2023/07/01 01:17:27;;;;;;;0.13;0.13;;;;;;;14.99;97.89;97809.81;5023645;28;20045;-74
2023/07/01 01:19:58;;;;;;;0.20;0.20;;;;;;;14.97;97.90;97805.78;4992219;28;20128;-73
2023/07/01 01:22:30;;;;;;;0.20;0.20;;;;;;;14.95;98.19;97808.91;5003595;28;20052;-73
2023/07/01 01:25:01;;;;;;;0.20;0.20;;;;;;;14.92;98.28;97798.63;5000559;28;20602;-73
2023/07/01 01:27:30;;;;;;;0.20;0.20;;;;;;;14.95;98.21;97805.34;5009752;28;20045;-73
2023/07/01 01:29:57;;;;;;;0.20;0.20;;;;;;;15.01;98.55;97803.97;5023838;28;20054;-75
2023/07/01 01:32:24;;;;;;;0.20;0.20;;;;;;;15.04;98.18;97806.00;5022516;28;20045;-72
2023/07/01 01:34:50;;;;;;;0.20;0.20;;;;;;;15.05;98.02;97806.78;5024820;28;20049;-73
2023/07/01 01:37:24;;;;;;;0.20;0.20;;;;;;;15.07;98.31;97805.28;5025085;28;20053;-72
2023/07/01 01:39:56;;;;;;;0.20;0.20;;;;;;;15.01;98.16;97796.50;5024248;28;20527;-73
2023/07/01 01:42:27;;;;;;;0.20;0.20;;;;;;;15.10;98.41;97803.78;5024891;28;20041;-73
2023/07/01 01:44:55;;;;;;;0.20;0.20;;;;;;;15.11;97.84;97799.88;5022443;28;20053;-73
2023/07/01 01:47:26;;;;;;;0.20;0.20;;;;;;;15.06;98.11;97789.13;5023989;28;20060;-73
2023/07/01 01:49:55;;;;;;;0.20;0.20;;;;;;;15.09;98.33;97800.22;5006197;28;20141;-74
2023/07/01 01:52:23;;;;;;;0.20;0.20;;;;;;;15.10;98.65;97799.06;5021988;28;20318;-73
2023/07/01 01:54:51;;;;;;;0.20;0.20;;;;;;;15.13;98.56;97792.06;5022945;28;20083;-74
2023/07/01 01:57:19;;;;;;;0.20;0.20;;;;;;;15.15;98.51;97796.06;5023551;28;20045;-74
2023/07/01 01:59:47;;;;;;;0.20;0.20;;;;;;;15.17;98.27;97804.78;5025075;28;20491;-72
2023/07/01 02:02:13;;;;;;;0.20;0.20;;;;;;;15.19;98.37;97789.84;5020019;28;20049;-74
2023/07/01 02:04:42;;;;;;;0.13;0.13;;;;;;;15.21;97.80;97798.56;5006114;28;20508;-73
2023/07/01 02:07:08;;;;;;;0.20;0.20;;;;;;;15.24;97.71;97789.59;5041665;28;20056;-73
2023/07/01 02:09:34;;;;;;;0.20;0.20;;;;;;;15.29;97.59;97786.56;4989028;28;20076;-73
2023/07/01 02:12:01;;;;;;;0.20;0.20;;;;;;;15.32;97.39;97789.41;5007172;28;20057;-74
2023/07/01 02:14:27;;;;;;;0.20;0.20;;;;;;;15.36;97.42;97788.69;5025876;28;20132;-73
2023/07/01 02:16:54;;;;;;;0.20;0.20;;;;;;;15.39;97.01;97794.28;5006459;28;20488;-73
2023/07/01 02:19:20;;;;;;;0.20;0.20;;;;;;;15.38;96.64;97789.94;5024914;28;20520;-74
2023/07/01 02:21:48;;;;;;;0.20;0.20;;;;;;;15.40;96.73;97787.63;5007884;28;20054;-73
2023/07/01 02:24:14;;;;;;;0.20;0.20;;;;;;;15.41;96.70;97791.19;5023798;28;20510;-73
2023/07/01 02:26:41;;;;;;;0.20;0.20;;;;;;;15.42;96.25;97803.78;5023824;28;20045;-73
2023/07/01 02:29:08;;;;;;;0.20;0.20;;;;;;;15.43;96.50;97797.91;5004999;28;20063;-73
2023/07/01 02:31:34;;;;;;;0.20;0.20;;;;;;;15.46;96.38;97788.16;5025781;28;20042;-73
2023/07/01 02:34:01;;;;;;;0.20;0.20;;;;;;;15.47;96.52;97792.50;5006536;28;20057;-73
2023/07/01 02:36:28;;;;;;;0.20;0.20;;;;;;;15.48;96.46;97788.59;5024237;28;20049;-73
2023/07/01 02:38:57;;;;;;;0.22;0.22;;;;;;;15.51;95.95;97803.63;5023428;28;20053;-73
2023/07/01 02:41:23;;;;;;;0.20;0.20;;;;;;;15.49;96.31;97803.19;5005847;28;20143;-73
2023/07/01 02:43:50;;;;;;;0.20;0.20;;;;;;;15.50;95.97;97811.06;5003546;28;20064;-72
2023/07/01 02:46:16;;;;;;;0.20;0.20;;;;;;;15.45;96.11;97812.16;5024170;28;20148;-73
2023/07/01 02:48:43;;;;;;;0.20;0.20;;;;;;;15.47;96.37;97817.28;5006898;28;20073;-73
2023/07/01 02:51:09;;;;;;;0.20;0.20;;;;;;;15.49;96.34;97809.47;5022661;28;20481;-73
2023/07/01 02:53:36;;;;;;;0.20;0.20;;;;;;;15.52;96.16;97810.72;5006267;28;20057;-73
2023/07/01 02:56:04;;;;;;;0.20;0.20;;;;;;;15.55;96.06;97812.75;4992509;28;20053;-73
2023/07/01 02:58:30;;;;;;;0.20;0.20;;;;;;;15.57;96.03;97804.94;5011358;28;20135;-73
2023/07/01 03:00:57;;;;;;;0.20;0.20;;;;;;;15.54;95.89;97805.66;5011459;28;20041;-73
2023/07/01 03:03:23;;;;;;;0.20;0.20;;;;;;;15.58;95.63;97809.28;5030584;28;20136;-72
2023/07/01 03:05:50;;;;;;;0.20;0.20;;;;;;;15.63;95.61;97814.53;4994289;28;20080;-74
2023/07/01 03:08:17;;;;;;;0.20;0.20;;;;;;;15.69;95.58;97813.09;5026928;28;20972;-73
2023/07/01 03:10:43;;;;;;;0.20;0.20;;;;;;;15.72;95.09;97809.63;5024751;28;20512;-73
2023/07/01 03:13:11;;;;;;;0.20;0.20;;;;;;;15.76;95.15;97806.13;5024901;28;20719;-72
2023/07/01 03:15:37;;;;;;;0.20;0.20;;;;;;;15.75;95.10;97813.63;5022702;28;20595;-73
2023/07/01 03:18:03;;;;;;;0.20;0.20;;;;;;;15.71;95.47;97801.72;5024878;28;20087;-74
2023/07/01 03:20:30;;;;;;;0.20;0.20;;;;;;;15.72;95.15;97797.81;5027232;28;20048;-73
2023/07/01 03:22:57;;;;;;;0.20;0.20;;;;;;;15.66;95.16;97801.97;5027087;28;20053;-73
2023/07/01 03:25:24;;;;;;;0.20;0.20;;;;;;;15.67;95.71;97804.41;5025869;28;20107;-72
2023/07/01 03:27:51;;;;;;;0.20;0.20;;;;;;;15.71;95.33;97804.47;5023988;28;20424;-72
2023/07/01 03:30:20;;;;;;;0.20;0.20;;;;;;;15.76;95.47;97801.44;4994699;28;20045;-73
2023/07/01 03:32:47;;;;;;;0.20;0.20;;;;;;;15.79;95.41;97802.69;5008657;28;20074;-74
2023/07/01 03:35:15;;;;;;;0.20;0.20;;;;;;;15.78;95.02;97796.38;5026189;28;20042;-73
2023/07/01 03:37:42;;;;;;;0.20;0.20;;;;;;;15.74;95.44;97784.47;5026373;28;20454;-74
2023/07/01 03:40:11;;;;;;;;;;;;;;;15.77;95.63;97786.50;5028648;28;20128;-72
2023/07/01 03:42:38;;;;;;;0.28;0.28;;;;;;;15.93;95.05;97792.03;5026710;28;19925;-74
2023/07/01 03:45:07;;;;;;;0.20;0.20;;;;;;;16.16;93.92;97796.84;5026677;28;20053;-73
2023/07/01 03:47:37;;;;;;;0.30;0.30;;;;;;;16.20;92.97;97794.94;5027588;28;20053;-73
2023/07/01 03:50:04;;;;;;;0.20;0.20;;;;;;;16.17;92.44;97798.44;5008980;28;20104;-74
2023/07/01 03:52:33;;;;;;;0.20;0.20;;;;;;;16.20;92.93;97794.16;5027077;28;20429;-74
2023/07/01 03:54:59;;;;;;;0.20;0.20;;;;;;;16.23;92.51;97801.72;5008452;28;20053;-74
2023/07/01 03:57:25;;;;;;;0.20;0.20;;;;;;;16.20;92.71;97803.22;5008743;28;20501;-73
2023/07/01 03:59:52;;;;;;;0.20;0.20;;;;;;;16.15;92.63;97803.50;5028338;28;20053;-73
2023/07/01 04:02:19;;;;;;;0.20;0.20;;;;;;;16.12;93.08;97798.72;5028554;28;20622;-73
2023/07/01 04:04:47;;;;;;;0.20;0.20;;;;;;;16.05;93.15;97795.78;5026767;28;20481;-73
2023/07/01 04:07:14;;;;;;;0.20;0.20;;;;;;;16.07;92.85;97802.56;5009899;28;20517;-74
2023/07/01 04:09:40;;;;;;;0.20;0.20;;;;;;;16.06;93.02;97805.66;5023715;28;20049;-73
2023/07/01 04:12:07;;;;;;;0.20;0.20;;;;;;;16.05;93.28;97801.31;5026783;28;20073;-73
2023/07/01 04:14:34;;;;;;;0.30;0.30;;;;;;;16.16;92.36;97783.88;5027693;28;20075;-72
2023/07/01 04:17:00;;;;;;;0.20;0.20;;;;;;;16.46;91.34;97812.81;5024645;28;20037;-73
2023/07/01 04:19:26;;;;;;;0.30;0.30;;;;;;;16.58;89.95;97806.34;5024973;28;20060;-73
2023/07/01 04:21:54;;;;;;;0.30;0.30;;;;;;;16.80;89.55;97804.03;5025068;28;20156;-73
2023/07/01 04:24:20;;;;;;;0.30;0.30;;;;;;;16.91;88.18;97801.47;4992063;28;20153;-73
2023/07/01 04:26:47;;;;;;;0.30;0.30;;;;;;;16.89;87.37;97799.06;5024538;28;20150;-73
2023/07/01 04:29:13;;;;;;;0.30;0.30;;;;;;;16.94;86.81;97804.31;5026442;28;20041;-72
2023/07/01 04:31:39;;;;;;;0.22;0.22;;;;;;;16.97;86.79;97809.09;5026647;28;20161;-72
2023/07/01 04:34:06;;;;;;;0.30;0.30;;;;;;;17.09;86.58;97810.88;4990941;28;20095;-74
2023/07/01 04:36:32;;;;;;;0.30;0.30;;;;;;;17.17;85.81;97809.06;5022579;28;20084;-73
2023/07/01 04:39:00;;;;;;;0.20;0.20;;;;;;;17.36;84.67;97819.25;5023137;28;20045;-74
2023/07/01 04:41:26;;;;;;;0.20;0.20;;;;;;;17.35;82.75;97811.31;5006489;28;20052;-75
2023/07/01 04:43:52;;;;;;;0.30;0.30;;;;;;;17.48;81.95;97812.72;5024128;28;20531;-73
2023/07/01 04:46:18;;;;;;;0.30;0.30;;;;;;;17.69;81.83;97812.28;5026309;28;20049;-73
2023/07/01 04:48:45;;;;;;;0.30;0.30;;;;;;;18.06;80.37;97816.41;5025637;28;20152;-73
2023/07/01 04:51:11;;;;;;;0.30;0.30;;;;;;;18.43;78.47;97809.38;5025690;28;20045;-73
2023/07/01 04:53:38;;;;;;;0.30;0.30;;;;;;;18.63;76.73;97811.97;5008557;28;20115;-73
2023/07/01 04:56:06;;;;;;;0.28;0.28;;;;;;;18.58;76.71;97812.34;5026710;28;20087;-73
2023/07/01 04:58:34;;;;;;;0.30;0.30;;;;;;;18.52;76.71;97809.88;5023419;28;20045;-73
2023/07/01 05:01:00;;;;;;;0.30;0.30;;;;;;;18.41;76.28;97808.94;4988000;28;20135;-73
2023/07/01 05:03:27;;;;;;;0.45;0.30;;;;;;;18.47;75.99;97807.44;5024521;28;20115;-72
2023/07/01 05:05:53;;;;;;;0.40;0.40;;;;;;;18.50;75.53;97811.44;5022814;28;20172;-73
2023/07/01 05:08:20;;;;;;;0.30;0.30;;;;;;;18.84;75.49;97808.66;5007820;28;20103;-73
2023/07/01 05:10:46;;;;;;;0.30;0.30;;;;;;;19.10;74.02;97812.50;5007158;28;20049;-73
2023/07/01 05:13:14;;;;;;;0.30;0.30;;;;;;;19.22;73.34;97806.69;5027619;28;20084;-73
2023/07/01 05:15:40;;;;;;;0.30;0.30;;;;;;;18.97;74.88;97814.72;5024052;28;20073;-73
2023/07/01 05:18:07;;;;;;;0.30;0.30;;;;;;;18.89;75.14;97816.63;5026542;28;20072;-73
2023/07/01 05:20:33;;;;;;;0.30;0.30;;;;;;;18.58;76.27;97806.78;5024049;28;20056;-73
2023/07/01 05:23:00;;;;;;;0.20;0.20;;;;;;;18.36;76.60;97820.34;5023987;28;20140;-73
2023/07/01 05:25:26;;;;;;;0.30;0.30;;;;;;;18.22;76.90;97813.44;5004231;28;20056;-73
2023/07/01 05:27:52;;;;;;;0.30;0.30;;;;;;;18.36;77.04;97814.81;5020787;28;20079;-74
2023/07/01 05:30:20;;;;;;;0.20;0.20;;;;;;;18.55;76.24;97809.13;5025398;28;20045;-72
2023/07/01 05:32:46;;;;;;;0.30;0.30;;;;;;;18.63;76.41;97812.75;5025055;28;20163;-71
2023/07/01 05:35:13;;;;;;;0.30;0.30;;;;;;;18.54;76.61;97807.53;5020677;28;20049;-71
2023/07/01 05:37:39;;;;;;;0.30;0.30;;;;;;;18.36;77.15;97821.16;5005088;28;20048;-72
2023/07/01 05:40:07;;;;;;;0.30;0.30;;;;;;;18.30;77.53;97814.34;5022644;28;20057;-71
2023/07/01 05:42:33;;;;;;;0.30;0.30;;;;;;;18.28;77.44;97820.25;5024282;28;20513;-71
2023/07/01 05:44:59;;;;;;;0.30;0.30;;;;;;;18.46;77.39;97824.41;5019518;28;20299;-71
2023/07/01 05:47:27;;;;;;;0.30;0.30;;;;;;;18.54;76.30;97832.44;5021670;28;20097;-71
2023/07/01 05:49:53;;;;;;;0.30;0.30;;;;;;;18.51;76.17;97827.66;5022220;28;20056;-71
2023/07/01 05:52:20;;;;;;;0.30;0.30;;;;;;;18.67;75.92;97835.75;5022328;28;20406;-73
2023/07/01 05:54:47;;;;;;;0.30;0.30;;;;;;;18.84;74.90;97833.59;5023978;28;20057;-73
2023/07/01 05:57:14;;;;;;;0.30;0.30;;;;;;;19.16;73.25;97833.16;5023729;28;20517;-73
2023/07/01 05:59:41;;;;;;;0.30;0.30;;;;;;;19.17;71.85;97834.75;5007461;28;20054;-73
2023/07/01 06:02:07;;;;;;;0.30;0.30;;;;;;;19.11;72.31;97841.78;5007142;28;20076;-73
2023/07/01 06:04:35;;;;;;;0.30;0.30;;;;;;;19.21;72.42;97830.03;5025017;28;20054;-73
2023/07/01 06:07:01;;;;;;;0.30;0.30;;;;;;;19.34;72.14;97841.63;4984910;28;20042;-73
2023/07/01 06:09:27;;;;;;;0.30;0.30;;;;;;;19.31;71.79;97844.38;5003746;28;20112;-73
2023/07/01 06:11:53;;;;;;;0.30;0.30;;;;;;;19.41;71.00;97850.00;5002305;28;20215;-73
2023/07/01 06:14:20;;;;;;;0.30;0.30;;;;;;;19.37;71.34;97845.59;4986327;28;20517;-74
2023/07/01 06:16:46;;;;;;;0.20;0.20;;;;;;;19.41;71.32;97846.44;5003394;28;20046;-72
2023/07/01 06:19:12;;;;;;;0.30;0.30;;;;;;;19.23;70.55;97849.81;5017534;28;20045;-73
2023/07/01 06:21:40;;;;;;;0.30;0.30;;;;;;;19.25;70.66;97853.00;5021875;28;20050;-73
2023/07/01 06:24:06;;;;;;;0.30;0.30;;;;;;;19.32;70.86;97849.50;5022424;28;20126;-73
2023/07/01 06:26:32;;;;;;;0.30;0.30;;;;;;;19.58;70.20;97845.00;5023442;28;20046;-73
2023/07/01 06:28:58;;;;;;;0.30;0.30;;;;;;;19.68;69.25;97846.28;5024019;28;20058;-73
2023/07/01 06:31:24;;;;;;;0.30;0.30;;;;;;;19.60;67.99;97850.97;5023580;28;20047;-73
2023/07/01 06:33:51;;;;;;;0.30;0.30;;;;;;;19.66;67.85;97845.88;5009955;28;20038;-73
2023/07/01 06:36:18;;;;;;;0.30;0.30;;;;;;;19.81;67.50;97844.78;5030368;28;20049;-74
2023/07/01 06:38:46;;;;;;;0.30;0.30;;;;;;;20.08;65.87;97839.06;5027360;28;20049;-73
2023/07/01 06:41:13;;;;;;;0.30;0.30;;;;;;;20.47;65.06;97846.03;5024969;28;20049;-73
2023/07/01 06:43:46;;;;;;;0.30;0.30;;;;;;;20.85;63.81;97839.44;5008818;28;20132;-73
2023/07/01 06:46:12;;;;;;;;;;;;;;;21.19;62.61;97841.91;5027509;28;20544;-73
2023/07/01 06:48:42;;;;;;;0.30;0.30;;;;;;;21.15;62.05;97839.16;5009202;28;20423;-71
2023/07/01 06:51:11;;;;;;;0.30;0.30;;;;;;;21.27;61.19;97846.31;5028784;28;20133;-71
2023/07/01 06:53:39;;;;;;;0.30;0.30;;;;;;;21.66;60.23;97845.56;5012154;28;20127;-72
2023/07/01 06:56:10;;;;;;;0.40;0.40;;;;;;;21.83;58.65;97847.94;5008581;28;20050;-71
2023/07/01 06:58:41;;;;;;;0.30;0.30;;;;;;;22.01;57.22;97847.91;5027223;28;20156;-71
2023/07/01 07:01:11;;;;;;;0.32;0.32;;;;;;;21.80;57.69;97841.19;5029021;28;20046;-71
2023/07/01 07:03:39;;;;;;;0.40;0.40;;;;;;;21.70;58.00;97848.34;5027051;28;20049;-71
2023/07/01 07:06:06;;;;;;;0.30;0.30;;;;;;;21.72;57.68;97840.38;5024837;28;20073;-71
2023/07/01 07:08:33;;;;;;;0.30;0.30;;;;;;;21.63;57.04;97851.09;5023087;28;20053;-72
2023/07/01 07:11:03;;;;;;;0.40;0.40;;;;;;;21.65;57.48;97840.38;5007235;28;20429;-71
2023/07/01 07:13:30;;;;;;;0.30;0.30;;;;;;;21.88;57.11;97841.97;5024486;28;20477;-71
2023/07/01 07:15:57;;;;;;;0.40;0.40;;;;;;;21.96;56.65;97849.91;5027801;28;20567;-71
2023/07/01 07:18:23;;;;;;;0.40;0.40;;;;;;;21.64;57.71;97831.22;5028085;28;20053;-72
2023/07/01 07:20:49;;;;;;;0.30;0.30;;;;;;;21.73;57.18;97830.06;5008969;28;20052;-72
2023/07/01 07:23:16;;;;;;;0.30;0.30;;;;;;;21.72;57.39;97845.94;4991291;28;20045;-72
2023/07/01 07:25:42;;;;;;;0.30;0.30;;;;;;;21.70;56.38;97837.22;5024823;28;20396;-72
2023/07/01 07:28:08;;;;;;;0.30;0.30;;;;;;;21.43;56.37;97834.78;5024134;28;20592;-72
2023/07/01 07:30:37;;;;;;;0.30;0.30;;;;;;;21.17;56.80;97833.19;5025401;28;20053;-72
2023/07/01 07:33:03;;;;;;;0.30;0.30;;;;;;;21.32;57.00;97836.78;5024075;28;20075;-71
2023/07/01 07:35:29;;;;;;;0.40;0.40;;;;;;;21.76;56.07;97838.41;5026405;28;20140;-72
2023/07/01 07:37:56;;;;;;;0.30;0.30;;;;;;;22.13;54.40;97846.72;5027561;28;20041;-71
2023/07/01 07:40:22;;;;;;;0.40;0.40;;;;;;;22.07;53.47;97827.63;4993886;28;20255;-71
2023/07/01 07:42:53;;;;;;;0.30;0.30;;;;;;;22.04;53.24;97820.09;5023415;28;20054;-71
2023/07/01 07:45:20;;;;;;;0.40;0.40;;;;;;;22.05;53.13;97848.72;5025667;28;20069;-72
2023/07/01 07:47:48;;;;;;;0.40;0.40;;;;;;;22.33;52.79;97827.59;5027104;28;20677;-72
2023/07/01 07:50:15;;;;;;;0.40;0.40;;;;;;;22.91;51.29;97835.72;5023483;28;20420;-72
2023/07/01 07:52:41;;;;;;;0.30;0.30;;;;;;;23.01;50.81;97839.63;5024567;28;20057;-72
2023/07/01 07:55:08;;;;;;;0.40;0.40;;;;;;;23.09;50.74;97841.97;5007721;28;20061;-72
2023/07/01 07:57:34;;;;;;;0.32;0.32;;;;;;;22.94;48.98;97840.47;5025689;28;20485;-72
2023/07/01 08:00:01;;;;;;;0.30;0.30;;;;;;;22.80;49.62;97839.38;5023306;28;20583;-72
2023/07/01 08:02:28;;;;;;;0.30;0.30;;;;;;;22.66;49.03;97840.22;5025427;28;20046;-72
2023/07/01 08:04:56;;;;;;;0.30;0.30;;;;;;;22.77;49.64;97826.22;5025700;28;20077;-73
2023/07/01 08:07:23;;;;;;;0.57;0.40;;;;;;;23.03;48.64;97840.84;5027491;28;20508;-74
2023/07/01 08:09:50;;;;;;;0.40;0.40;;;;;;;23.29;48.45;97849.88;5024492;28;20049;-74
2023/07/01 08:12:16;;;;;;;0.30;0.30;;;;;;;23.59;47.94;97842.09;5024251;28;20077;-72
2023/07/01 08:14:43;;;;;;;0.40;0.40;;;;;;;23.42;47.70;97841.03;5027035;28;20053;-72
2023/07/01 08:17:09;;;;;;;0.30;0.30;;;;;;;23.60;47.14;97847.25;5009932;28;20053;-72
2023/07/01 08:19:36;;;;;;;0.30;0.30;;;;;;;23.54;47.77;97846.09;5025497;28;20555;-74
2023/07/01 08:22:04;;;;;;;0.30;0.30;;;;;;;23.39;47.05;97858.56;5008065;28;20055;-74
2023/07/01 08:24:30;;;;;;;0.35;0.35;;;;;;;23.43;45.87;97832.25;5026733;28;20045;-73
2023/07/01 08:26:58;;;;;;;0.40;0.40;;;;;;;23.59;44.41;97831.72;5022675;28;20056;-74
2023/07/01 08:29:24;;;;;;;0.50;0.50;;;;;;;23.87;44.34;97854.22;5024042;28;20049;-74
2023/07/01 08:31:51;;;;;;;0.50;0.50;;;;;;;24.75;42.85;97844.50;5021567;28;20094;-74
2023/07/01 08:34:21;;;;;;;0.50;0.50;;;;;;;25.58;41.54;97848.19;5025206;28;20046;-72
2023/07/01 08:36:48;;;;;;;0.30;0.30;;;;;;;25.76;40.74;97853.50;5023426;28;20535;-71
2023/07/01 08:39:16;;;;;;;0.50;0.50;;;;;;;24.74;43.36;97851.31;5022886;28;20049;-73
2023/07/01 08:41:50;;;;;;;0.30;0.30;;;;;;;24.48;44.24;97855.63;5006971;28;20073;-73
2023/07/01 08:44:18;;;;;;;0.30;0.30;;;;;;;24.03;45.33;97856.47;5024479;28;20049;-72
2023/07/01 08:46:45;;;;;;;0.50;0.50;;;;;;;23.75;45.92;97858.31;5005769;28;20420;-72
2023/07/01 08:49:16;;;;;;;0.30;0.30;;;;;;;23.99;45.19;97856.50;5006862;28;20534;-72
2023/07/01 08:51:44;;;;;;;0.60;0.60;;;;;;;23.77;45.33;97855.88;5021780;28;20045;-73
2023/07/01 08:54:11;;;;;;;0.50;0.50;;;;;;;24.17;44.20;97864.69;5023638;28;20061;-74
2023/07/01 08:56:39;;;;;;;0.30;0.30;;;;;;;24.61;43.00;97859.47;5006894;28;20055;-74
2023/07/01 08:59:06;;;;;;;0.30;0.30;;;;;;;24.50;43.44;97867.16;5026647;28;20076;-75
2023/07/01 09:01:33;;;;;;;0.30;0.30;;;;;;;24.04;44.10;97860.84;5025180;28;20050;-74
2023/07/01 09:04:00;;;;;;;0.40;0.40;;;;;;;23.59;44.89;97856.03;5024286;28;20053;-74
2023/07/01 09:06:26;;;;;;;0.50;0.50;;;;;;;23.99;44.28;97850.91;5027968;28;20057;-75
2023/07/01 09:08:54;;;;;;;0.52;0.52;;;;;;;25.34;41.16;97864.09;5023496;28;20076;-74
2023/07/01 09:11:20;;;;;;;0.50;0.50;;;;;;;26.90;37.81;97859.41;5006782;28;20419;-74
2023/07/01 09:13:55;;;;;;;0.30;0.30;;;;;;;27.20;36.90;97856.78;5006642;28;20107;-74
2023/07/01 09:16:31;;;;;;;0.35;0.35;;;;;;;26.84;37.99;97863.13;5021585;28;20228;-72
2023/07/01 09:19:03;;;;;;;0.30;0.30;;;;;;;25.91;38.90;97867.25;5024659;28;20049;-73
2023/07/01 09:21:32;;;;;;;0.70;0.70;;;;;;;25.73;39.91;97859.16;5025122;28;20045;-74
2023/07/01 09:23:59;;;;;;;0.40;0.40;;;;;;;25.67;39.88;97856.03;5027196;28;20054;-74
2023/07/01 09:26:27;;;;;;;0.60;0.60;;;;;;;25.34;40.92;97858.50;5029368;28;20531;-74
2023/07/01 09:28:56;;;;;;;0.45;0.45;;;;;;;26.45;39.22;97845.88;5027941;28;20410;-73
2023/07/01 09:31:22;;;;;;;0.70;0.70;;;;;;;27.00;38.85;97860.41;5028800;28;20049;-74
2023/07/01 09:34:00;;;;;;;0.70;0.70;;;;;;;28.47;35.72;97861.34;5027053;28;20642;-72
2023/07/01 09:36:29;;;;;;;0.38;0.38;;;;;;;29.26;33.70;97859.03;5026204;28;20080;-72
2023/07/01 09:38:55;;;;;;;0.60;0.60;;;;;;;28.69;33.73;97850.28;5026779;28;20128;-73
2023/07/01 09:41:24;;;;;;;0.40;0.40;;;;;;;28.00;34.66;97863.34;5024499;28;20041;-72
2023/07/01 09:43:51;;;;;;;0.43;0.43;;;;;;;26.71;36.33;97868.59;5006313;28;20058;-71
2023/07/01 09:46:22;;;;;;;;;;;;;;;26.08;37.79;97870.16;5009495;28;20049;-73
2023/07/01 09:48:53;;;;;;;0.80;0.80;;;;;;;27.26;36.17;97862.69;5025751;28;20111;-73
2023/07/01 09:51:20;;;;;;;0.82;0.82;;;;;;;28.36;33.83;97851.16;5024101;28;20045;-72
2023/07/01 09:53:46;;;;;;;4.03;1.42;;;;;;;29.13;33.40;97856.22;5026262;28;20053;-68
2023/07/01 09:56:15;;;;;;;0.50;0.50;;;;;;;29.65;33.27;97852.63;5026079;28;20045;-66
2023/07/01 09:58:41;;;;;;;0.85;0.70;;;;;;;29.69;31.90;97856.13;5028703;28;20076;-69
2023/07/01 10:01:08;;;;;;;;;;;;;;;29.29;31.71;97857.38;5026588;28;20054;-80
2023/07/01 10:03:37;;;;;;;0.40;0.40;;;;;;;29.21;32.75;97864.44;5025054;28;20268;-74
2023/07/01 10:06:03;;;;;;;0.60;0.60;;;;;;;29.09;32.28;97849.91;5027491;28;20592;-59
2023/07/01 10:08:30;;;;;;;0.50;0.50;;;;;;;28.99;33.11;97842.59;5030143;28;20877;-73
2023/07/01 10:11:01;;;;;;;0.50;0.50;;;;;;;28.67;33.01;97852.75;5027177;28;20041;-64
2023/07/01 10:13:28;;;;;;;0.60;0.60;;;;;;;28.65;34.07;97853.19;5030000;28;20212;-65
2023/07/01 10:15:56;;;;;;;0.60;0.60;;;;;;;29.48;32.26;97849.94;5029692;28;20394;-68
2023/07/01 10:18:23;;;;;;;0.40;0.40;;;;;;;30.07;29.79;97846.81;5027675;28;20045;-69
2023/07/01 10:20:51;;;;;;;0.60;0.60;;;;;;;29.69;30.05;97854.09;5030168;28;20536;-70
2023/07/01 10:23:19;;;;;;;0.30;0.30;;;;;;;29.72;30.60;97870.06;5029382;28;20148;-71
2023/07/01 10:25:45;;;;;;;0.40;0.40;;;;;;;28.17;32.68;97853.69;5031349;28;20061;-71
2023/07/01 10:28:16;;;;;;;0.60;0.60;;;;;;;27.86;33.78;97858.84;5031337;28;20128;-70
2023/07/01 10:31:12;;;;;;;0.60;0.60;;;;;;;29.12;31.79;97860.28;5030989;28;20041;-71
2023/07/01 10:33:48;;;;;;;0.60;0.60;;;;;;;29.42;31.31;97863.00;5023878;28;20107;-71
2023/07/01 10:36:17;;;;;;;0.60;0.60;;;;;;;30.16;31.01;97863.00;5028047;28;20516;-70
2023/07/01 10:38:44;;;;;;;0.60;0.60;;;;;;;30.96;28.75;97846.06;5011367;28;20092;-71
2023/07/01 10:41:11;;;;;;;0.70;0.70;;;;;;;30.96;27.29;97858.16;5027483;28;20049;-70
2023/07/01 10:43:38;;;;;;;0.70;0.70;;;;;;;31.14;27.28;97859.50;5028885;28;20460;-70
2023/07/01 10:46:25;;;;;;;0.70;0.70;;;;;;;31.41;26.28;97856.03;5027138;28;20064;-70
2023/07/01 10:49:12;;;;;;;0.70;0.70;;;;;;;31.52;26.48;97866.88;5028276;28;20077;-71
2023/07/01 10:52:05;;;;;;;0.80;0.80;;;;;;;32.42;25.70;97863.63;5020809;28;20053;-69
2023/07/01 10:54:37;;;;;;;0.80;0.80;;;;;;;32.88;25.70;97855.09;5026336;28;20371;-70
2023/07/01 10:57:15;;;;;;;0.40;0.40;;;;;;;33.38;24.37;97856.84;5011942;28;20033;-70
2023/07/01 10:59:42;;;;;;;0.90;0.90;;;;;;;32.31;25.60;97859.19;5027312;28;20052;-70
2023/07/01 11:02:09;;;;;;;0.90;0.90;;;;;;;32.35;26.14;97851.41;5028644;28;20099;-69
2023/07/01 11:05:05;;;;;;;0.40;0.40;;;;;;;32.32;25.96;97866.44;5028120;28;20056;-71
2023/07/01 11:07:37;;;;;;;0.40;0.40;;;;;;;30.85;28.26;97863.41;5026463;28;20049;-71
2023/07/01 11:10:06;;;;;;;0.45;0.45;;;;;;;30.04;29.41;97858.19;4995075;28;20056;-72
2023/07/01 11:12:32;;;;;;;0.40;0.40;;;;;;;28.80;30.97;97862.03;5010510;28;20041;-70
2023/07/01 11:15:00;;;;;;;0.40;0.40;;;;;;;28.29;31.44;97866.19;5025088;28;20045;-70
2023/07/01 11:17:26;;;;;;;0.40;0.40;;;;;;;27.94;32.17;97867.88;5022086;28;20041;-70
2023/07/01 11:19:54;;;;;;;0.40;0.40;;;;;;;27.32;32.90;97860.91;5028605;28;20058;-70
2023/07/01 11:22:20;;;;;;;0.90;0.90;;;;;;;27.66;32.07;97856.16;4995073;28;20049;-70
2023/07/01 11:24:48;;;;;;;0.95;0.95;;;;;;;28.51;30.90;97859.19;5010191;28;20413;-69
2023/07/01 11:27:17;;;;;;;1.00;1.00;;;;;;;29.32;30.63;97864.09;5021612;28;20057;-70
2023/07/01 11:29:44;;;;;;;1.10;1.10;;;;;;;30.84;28.01;97862.63;5020185;28;20513;-69
2023/07/01 11:32:15;;;;;;;1.10;1.10;;;;;;;32.13;27.05;97859.19;5016836;28;20095;-70
2023/07/01 11:34:42;;;;;;;1.10;1.10;;;;;;;33.09;25.47;97856.16;4633361;28;9999631;-70
2023/07/01 11:37:09;;;;;;;1.10;1.10;;;;;;;33.73;25.11;97859.22;4994886;28;20053;-70